createdAt,value
2022-10-02T00:00:03.819Z,99546.16
2022-10-02T00:03:02.286Z,99544.41
2022-10-02T00:05:53.924Z,99549.53
2022-10-02T00:08:42.589Z,99533.31
2022-10-02T00:11:43.657Z,99541.03
2022-10-02T00:14:39.127Z,99543.59
2022-10-02T00:17:32.685Z,99550.50
2022-10-02T00:20:23.829Z,99566.72
2022-10-02T00:23:18.081Z,99561.59
2022-10-02T00:26:11.044Z,99560.78
2022-10-02T00:29:10.285Z,99563.22
2022-10-02T00:32:15.581Z,99557.25
2022-10-02T00:35:30.136Z,99573.63
2022-10-02T00:38:33.987Z,99578.75
2022-10-02T00:42:12.413Z,99577.25
2022-10-02T00:45:32.361Z,99569.53
2022-10-02T00:48:49.400Z,99583.31
2022-10-02T00:52:05.243Z,99580.75
2022-10-02T00:55:32.343Z,99568.81
2022-10-02T00:58:53.374Z,99565.44
2022-10-02T01:01:44.057Z,99568.94
2022-10-02T01:04:36.889Z,99573.97
2022-10-02T01:07:23.978Z,99579.09
2022-10-02T01:10:13.093Z,99578.97
2022-10-02T01:13:00.540Z,99585.88
2022-10-02T01:15:55.229Z,99578.06
2022-10-02T01:18:45.977Z,99564.41
2022-10-02T01:21:40.722Z,99563.44
2022-10-02T01:24:35.592Z,99560.06
2022-10-02T01:27:26.027Z,99558.31
2022-10-02T01:30:17.652Z,99558.31
2022-10-02T01:33:06.427Z,99570.22
2022-10-02T01:35:54.297Z,99574.44
2022-10-02T01:38:42.980Z,99562.50
2022-10-02T01:41:30.547Z,99565.91
2022-10-02T01:44:19.205Z,99562.50
2022-10-02T01:47:10.804Z,99574.44
2022-10-02T01:50:11.978Z,99576.28
2022-10-02T01:53:09.467Z,99579.81
2022-10-02T01:56:07.971Z,99587.53
2022-10-02T01:59:05.846Z,99599.53
2022-10-02T02:02:12.388Z,99604.78
2022-10-02T02:05:07.289Z,99597.94
2022-10-02T02:08:09.133Z,99601.28
2022-10-02T02:11:06.311Z,99591.94
2022-10-02T02:14:01.958Z,99597.09
2022-10-02T02:16:55.720Z,99593.59
2022-10-02T02:19:49.260Z,99595.34
2022-10-02T02:22:45.018Z,99591.81
2022-10-02T02:25:36.746Z,99580.63
2022-10-02T02:28:25.806Z,99588.31
2022-10-02T02:31:19.244Z,99604.56
2022-10-02T02:34:12.769Z,99605.38
2022-10-02T02:37:06.112Z,99601.06
2022-10-02T02:39:57.816Z,99598.47
2022-10-02T02:42:53.117Z,99595.09
2022-10-02T02:45:46.823Z,99590.78
2022-10-02T02:48:40.155Z,99583.91
2022-10-02T02:51:35.390Z,99589.84
2022-10-02T02:54:29.029Z,99581.22
2022-10-02T02:57:19.200Z,99575.13
2022-10-02T03:00:08.615Z,99581.91
2022-10-02T03:02:56.071Z,99581.09
2022-10-02T03:05:50.037Z,99576.75
2022-10-02T03:08:38.862Z,99583.53
2022-10-02T03:11:41.055Z,99585.19
2022-10-02T03:14:54.688Z,99579.34
2022-10-02T03:18:02.437Z,99598.97
2022-10-02T03:21:01.615Z,99602.34
2022-10-02T03:24:04.869Z,99610.03
2022-10-02T03:26:58.600Z,99605.75
2022-10-02T03:29:50.518Z,99598.03
2022-10-02T03:32:40.499Z,99595.47
2022-10-02T03:35:28.487Z,99591.25
2022-10-02T03:38:17.447Z,99591.25
2022-10-02T03:41:06.265Z,99592.91
2022-10-02T03:43:53.324Z,99589.41
2022-10-02T03:46:40.572Z,99585.19
2022-10-02T03:49:28.008Z,99593.56
2022-10-02T03:52:18.728Z,99580.03
2022-10-02T03:55:18.931Z,99584.25
2022-10-02T03:58:19.979Z,99588.69
2022-10-02T04:01:13.679Z,99591.25
2022-10-02T04:04:07.923Z,99590.31
2022-10-02T04:07:01.577Z,99592.91
2022-10-02T04:09:55.508Z,99587.75
2022-10-02T04:12:49.185Z,99585.19
2022-10-02T04:15:55.817Z,99598.03
2022-10-02T04:18:53.042Z,99598.03
2022-10-02T04:21:46.209Z,99604.91
2022-10-02T04:24:42.794Z,99595.59
2022-10-02T04:27:38.374Z,99602.34
2022-10-02T04:30:25.515Z,99610.03
2022-10-02T04:33:16.985Z,99612.63
2022-10-02T04:36:21.251Z,99608.31
2022-10-02T04:39:46.665Z,99606.66
2022-10-02T04:42:49.660Z,99602.47
2022-10-02T04:45:59.034Z,99600.81
2022-10-02T04:49:22.005Z,99592.31
2022-10-02T04:52:25.905Z,99600.81
2022-10-02T04:55:39.509Z,99594.06
2022-10-02T04:58:53.685Z,99588.09
2022-10-02T05:01:58.096Z,99602.69
2022-10-02T05:05:05.824Z,99604.47
2022-10-02T05:08:43.534Z,99596.75
2022-10-02T05:12:12.421Z,99605.38
2022-10-02T05:15:32.170Z,99610.53
2022-10-02T05:18:45.182Z,99604.56
2022-10-02T05:21:53.400Z,99607.13
2022-10-02T05:24:54.773Z,99601.97
2022-10-02T05:27:59.886Z,99601.06
2022-10-02T05:30:53.385Z,99597.69
2022-10-02T05:33:58.371Z,99603.63
2022-10-02T05:37:07.146Z,99595.91
2022-10-02T05:40:04.983Z,99602.81
2022-10-02T05:43:00.155Z,99606.19
2022-10-02T05:45:54.270Z,99602.69
2022-10-02T05:48:46.701Z,99604.47
2022-10-02T05:51:41.639Z,99591.63
2022-10-02T05:54:53.356Z,99605.28
2022-10-02T05:57:43.794Z,99603.63
2022-10-02T06:00:37.316Z,99602.69
2022-10-02T06:03:33.406Z,99609.47
2022-10-02T06:06:08.445Z,99612.84
2022-10-02T06:08:42.725Z,99609.47
2022-10-02T06:11:18.798Z,99616.22
2022-10-02T06:13:51.940Z,99618.00
2022-10-02T06:16:25.495Z,99611.09
2022-10-02T06:19:02.998Z,99614.50
2022-10-02T06:21:41.093Z,99630.72
2022-10-02T06:24:19.287Z,99628.16
2022-10-02T06:26:55.565Z,99630.72
2022-10-02T06:29:30.309Z,99623.00
2022-10-02T06:32:15.987Z,99623.00
2022-10-02T06:34:48.018Z,99618.59
2022-10-02T06:37:50.947Z,99619.53
2022-10-02T06:40:52.676Z,99611.09
2022-10-02T06:43:50.410Z,99611.09
2022-10-02T06:46:29.815Z,99605.94
2022-10-02T06:49:05.200Z,99609.47
2022-10-02T06:51:47.609Z,99609.47
2022-10-02T06:54:37.504Z,99605.94
2022-10-02T06:57:27.781Z,99606.91
2022-10-02T07:00:12.221Z,99607.84
2022-10-02T07:03:09.312Z,99618.13
2022-10-02T07:05:55.611Z,99611.34
2022-10-02T07:08:41.611Z,99626.75
2022-10-02T07:11:23.625Z,99632.72
2022-10-02T07:14:09.264Z,99622.44
2022-10-02T07:17:05.190Z,99628.41
2022-10-02T07:19:59.887Z,99618.13
2022-10-02T07:22:51.592Z,99615.56
2022-10-02T07:25:58.210Z,99611.34
2022-10-02T07:28:34.781Z,99612.97
2022-10-02T07:31:11.436Z,99617.31
2022-10-02T07:34:00.044Z,99619.75
2022-10-02T07:36:45.246Z,99624.91
2022-10-02T07:39:29.098Z,99612.84
2022-10-02T07:42:31.279Z,99616.34
2022-10-02T07:45:28.187Z,99628.41
2022-10-02T07:48:22.337Z,99638.66
2022-10-02T07:51:04.540Z,99636.91
2022-10-02T07:53:42.182Z,99624.91
2022-10-02T07:56:20.112Z,99615.44
2022-10-02T07:58:53.979Z,99640.19
2022-10-02T08:01:26.400Z,99645.22
2022-10-02T08:04:00.978Z,99641.84
2022-10-02T08:06:32.507Z,99635.75
2022-10-02T08:09:06.910Z,99631.44
2022-10-02T08:11:44.090Z,99635.75
2022-10-02T08:14:22.117Z,99627.09
2022-10-02T08:16:53.513Z,99627.09
2022-10-02T08:19:27.921Z,99638.22
2022-10-02T08:22:02.945Z,99636.34
2022-10-02T08:24:41.516Z,99635.53
2022-10-02T08:27:17.209Z,99627.00
2022-10-02T08:29:51.875Z,99627.94
2022-10-02T08:32:20.472Z,99635.53
2022-10-02T08:34:49.371Z,99633.09
2022-10-02T08:37:36.773Z,99627.00
2022-10-02T08:40:52.724Z,99621.16
2022-10-02T08:44:10.698Z,99623.00
2022-10-02T08:47:36.802Z,99615.44
2022-10-02T08:50:54.095Z,99638.66
2022-10-02T08:54:10.751Z,99624.91
2022-10-02T08:57:00.404Z,99623.25
2022-10-02T09:00:07.869Z,99627.59
2022-10-02T09:03:54.334Z,99619.16
2022-10-02T09:07:15.915Z,99632.94
2022-10-02T09:10:48.506Z,99634.69
2022-10-02T09:14:11.152Z,99635.63
2022-10-02T09:17:11.128Z,99632.13
2022-10-02T09:19:51.148Z,99615.66
2022-10-02T09:22:59.642Z,99608.75
2022-10-02T09:25:38.473Z,99625.03
2022-10-02T09:28:54.685Z,99637.16
2022-10-02T09:32:09.593Z,99629.69
2022-10-02T09:35:55.663Z,99603.38
2022-10-02T09:39:05.718Z,99619.03
2022-10-02T09:42:24.408Z,99619.03
2022-10-02T09:45:37.471Z,99615.75
2022-10-02T09:48:59.323Z,99614.84
2022-10-02T09:52:12.153Z,99617.41
2022-10-02T09:55:35.378Z,99624.19
2022-10-02T09:58:56.588Z,99626.63
2022-10-02T10:02:25.760Z,99630.97
2022-10-02T10:05:50.728Z,99612.84
2022-10-02T10:09:12.127Z,99623.13
2022-10-02T10:12:14.633Z,99628.16
2022-10-02T10:15:40.590Z,99613.53
2022-10-02T10:18:57.608Z,99631.53
2022-10-02T10:22:19.573Z,99632.38
2022-10-02T10:25:20.295Z,99636.47
2022-10-02T10:28:42.856Z,99646.75
2022-10-02T10:32:13.925Z,99640.75
2022-10-02T10:35:23.414Z,99632.94
2022-10-02T10:38:34.031Z,99617.41
2022-10-02T10:41:45.398Z,99639.72
2022-10-02T10:44:46.044Z,99622.44
2022-10-02T10:47:44.928Z,99604.34
2022-10-02T10:50:55.722Z,99630.03
2022-10-02T10:54:08.647Z,99638.44
2022-10-02T10:56:42.766Z,99644.41
2022-10-02T11:00:05.692Z,99631.56
2022-10-02T11:03:13.939Z,99639.28
2022-10-02T11:06:35.424Z,99634.13
2022-10-02T11:09:36.690Z,99652.94
2022-10-02T11:12:41.343Z,99650.34
2022-10-02T11:15:56.772Z,99652.00
2022-10-02T11:19:07.858Z,99655.25
2022-10-02T11:22:14.778Z,99639.84
2022-10-02T11:25:13.417Z,99627.72
2022-10-02T11:28:14.684Z,99648.25
2022-10-02T11:31:01.933Z,99647.22
2022-10-02T11:33:56.484Z,99662.53
2022-10-02T11:36:43.905Z,99670.91
2022-10-02T11:39:51.833Z,99675.25
2022-10-02T11:42:49.669Z,99652.94
2022-10-02T11:45:41.802Z,99650.22
2022-10-02T11:48:53.558Z,99646.84
2022-10-02T11:52:08.837Z,99671.63
2022-10-02T11:54:59.296Z,99666.38
2022-10-02T11:57:39.102Z,99643.25
2022-10-02T12:00:30.009Z,99668.81
2022-10-02T12:03:07.547Z,99658.41
2022-10-02T12:09:24.184Z,99661.91
2022-10-02T12:12:16.404Z,99648.97
2022-10-02T12:14:55.656Z,99652.34
2022-10-02T12:17:54.264Z,99658.31
2022-10-02T12:20:57.084Z,99654.00
2022-10-02T12:23:54.658Z,99650.50
2022-10-02T12:27:03.676Z,99654.81
2022-10-02T12:30:02.608Z,99654.91
2022-10-02T12:32:53.793Z,99658.31
2022-10-02T12:35:39.988Z,99661.72
2022-10-02T12:38:25.690Z,99653.06
2022-10-02T12:41:08.715Z,99645.34
2022-10-02T12:44:11.815Z,99641.94
2022-10-02T12:47:26.305Z,99638.56
2022-10-02T12:50:07.263Z,99640.31
2022-10-02T12:53:09.364Z,99629.94
2022-10-02T12:56:07.861Z,99642.88
2022-10-02T12:58:50.014Z,99643.59
2022-10-02T13:02:10.601Z,99652.22
2022-10-02T13:06:03.534Z,99645.44
2022-10-02T13:08:48.689Z,99639.50
2022-10-02T13:11:32.951Z,99650.59
2022-10-02T13:14:26.412Z,99645.44
2022-10-02T13:17:16.514Z,99647.09
2022-10-02T13:20:00.358Z,99651.31
2022-10-02T13:22:41.790Z,99645.22
2022-10-02T13:25:45.258Z,99650.38
2022-10-02T13:28:51.404Z,99668.38
2022-10-02T13:31:37.157Z,99660.66
2022-10-02T13:34:38.217Z,99664.84
2022-10-02T13:37:19.919Z,99667.41
2022-10-02T13:40:12.767Z,99667.41
2022-10-02T13:43:04.329Z,99658.78
2022-10-02T13:45:42.689Z,99657.97
2022-10-02T13:48:23.075Z,99649.34
2022-10-02T13:51:05.210Z,99656.09
2022-10-02T13:54:03.835Z,99646.63
2022-10-02T13:56:47.462Z,99649.22
2022-10-02T13:59:33.693Z,99645.81
2022-10-02T14:02:35.003Z,99638.94
2022-10-02T14:05:17.458Z,99653.38
2022-10-02T14:08:47.712Z,99650.13
2022-10-02T14:11:29.934Z,99644.06
2022-10-02T14:14:12.109Z,99648.25
2022-10-02T14:16:56.469Z,99649.88
2022-10-02T14:19:45.547Z,99641.25
2022-10-02T14:22:34.901Z,99632.72
2022-10-02T14:25:24.169Z,99639.50
2022-10-02T14:28:33.984Z,99647.31
2022-10-02T14:31:43.775Z,99648.97
2022-10-02T14:35:00.222Z,99655.88
2022-10-02T14:37:58.340Z,99656.81
2022-10-02T14:40:41.307Z,99660.19
2022-10-02T14:43:33.967Z,99656.69
2022-10-02T14:46:38.713Z,99665.31
2022-10-02T14:49:40.044Z,99660.19
2022-10-02T14:52:32.215Z,99655.03
2022-10-02T14:55:34.596Z,99657.59
2022-10-02T14:58:34.454Z,99647.44
2022-10-02T15:01:22.386Z,99648.25
2022-10-02T15:04:29.723Z,99655.03
2022-10-02T15:07:07.103Z,99652.47
2022-10-02T15:10:00.967Z,99651.53
2022-10-02T15:13:08.052Z,99651.66
2022-10-02T15:16:39.924Z,99662.75
2022-10-02T15:19:16.940Z,99665.44
2022-10-02T15:21:53.841Z,99675.59
2022-10-02T15:24:33.048Z,99671.28
2022-10-02T15:27:26.000Z,99667.88
2022-10-02T15:30:12.627Z,99670.47
2022-10-02T15:33:21.477Z,99670.47
2022-10-02T15:36:10.834Z,99671.28
2022-10-02T15:38:56.912Z,99667.88
2022-10-02T15:41:48.923Z,99673.03
2022-10-02T15:45:16.509Z,99679.09
2022-10-02T15:48:34.522Z,99683.56
2022-10-02T15:51:37.497Z,99688.69
2022-10-02T15:54:23.573Z,99690.56
2022-10-02T15:57:25.962Z,99702.47
2022-10-02T16:00:39.009Z,99698.25
2022-10-02T16:03:19.693Z,99708.53
2022-10-02T16:05:56.695Z,99696.53
2022-10-02T16:09:04.915Z,99707.63
2022-10-02T16:12:16.764Z,99708.53
2022-10-02T16:15:00.538Z,99713.69
2022-10-02T16:18:08.417Z,99713.69
2022-10-02T16:21:23.760Z,99713.69
2022-10-02T16:24:40.171Z,99716.38
2022-10-02T16:27:32.641Z,99730.06
2022-10-02T16:30:13.251Z,99724.94
2022-10-02T16:33:20.036Z,99736.94
2022-10-02T16:36:08.291Z,99731.81
2022-10-02T16:38:50.482Z,99739.41
2022-10-02T16:41:41.991Z,99744.53
2022-10-02T16:44:41.213Z,99731.81
2022-10-02T16:47:16.365Z,99721.53
2022-10-02T16:49:52.462Z,99732.66
2022-10-02T16:52:31.534Z,99726.66
2022-10-02T16:55:14.490Z,99737.78
2022-10-02T16:58:02.408Z,99737.06
2022-10-02T17:00:35.898Z,99742.22
2022-10-02T17:03:12.947Z,99741.28
2022-10-02T17:05:51.223Z,99753.22
2022-10-02T17:08:32.896Z,99753.22
2022-10-02T17:11:15.880Z,99756.59
2022-10-02T17:13:58.623Z,99762.53
2022-10-02T17:16:35.183Z,99772.81
2022-10-02T17:19:18.993Z,99784.06
2022-10-02T17:21:53.809Z,99790.81
2022-10-02T17:24:35.780Z,99799.47
2022-10-02T17:27:17.734Z,99796.06
2022-10-02T17:29:59.396Z,99797.84
2022-10-02T17:32:50.617Z,99796.06
2022-10-02T17:35:34.004Z,99802.88
2022-10-02T17:38:37.534Z,99802.97
2022-10-02T17:41:21.947Z,99813.25
2022-10-02T17:44:03.132Z,99813.25
2022-10-02T17:47:03.035Z,99818.53
2022-10-02T17:49:43.833Z,99825.41
2022-10-02T17:52:44.153Z,99822.75
2022-10-02T17:56:11.109Z,99828.91
2022-10-02T17:58:48.798Z,99828.91
2022-10-02T18:01:26.462Z,99836.63
2022-10-02T18:04:09.367Z,99838.25
2022-10-02T18:06:46.526Z,99848.53
2022-10-02T18:09:45.471Z,99852.06
2022-10-02T18:12:41.419Z,99852.13
2022-10-02T18:15:41.931Z,99855.66
2022-10-02T18:18:25.259Z,99861.63
2022-10-02T18:21:09.544Z,99860.81
2022-10-02T18:24:26.395Z,99860.94
2022-10-02T18:27:26.210Z,99872.13
2022-10-02T18:30:13.434Z,99877.28
2022-10-02T18:33:26.029Z,99879.84
2022-10-02T18:36:34.908Z,99886.72
2022-10-02T18:39:19.109Z,99887.56
2022-10-02T18:42:16.274Z,99899.47
2022-10-02T18:45:05.633Z,99893.50
2022-10-02T18:47:46.949Z,99897.84
2022-10-02T18:50:48.087Z,99904.81
2022-10-02T18:53:37.719Z,99909.84
2022-10-02T18:56:08.993Z,99918.41
2022-10-02T18:58:56.565Z,99918.41
2022-10-02T19:01:47.816Z,99923.53
2022-10-02T19:04:54.583Z,99922.69
2022-10-02T19:07:29.935Z,99923.53
2022-10-02T19:10:26.376Z,99926.91
2022-10-02T19:13:01.241Z,99934.53
2022-10-02T19:15:33.700Z,99928.44
2022-10-02T19:18:05.497Z,99925.78
2022-10-02T19:20:45.341Z,99939.47
2022-10-02T19:23:26.110Z,99947.19
2022-10-02T19:25:57.806Z,99948.09
2022-10-02T19:28:30.383Z,99953.13
2022-10-02T19:31:03.557Z,99953.13
2022-10-02T19:33:46.149Z,99948.78
2022-10-02T19:36:21.146Z,99954.78
2022-10-02T19:38:57.364Z,99954.66
2022-10-02T19:41:27.582Z,99961.56
2022-10-02T19:44:03.042Z,99972.66
2022-10-02T19:46:39.790Z,99962.50
2022-10-02T19:49:13.947Z,99970.09
2022-10-02T19:51:48.218Z,99977.78
2022-10-02T19:54:24.530Z,99984.59
2022-10-02T19:56:59.172Z,99975.34
2022-10-02T19:59:33.914Z,99973.47
2022-10-02T20:02:15.956Z,99982.13
2022-10-02T20:05:07.452Z,99995.91
2022-10-02T20:08:01.944Z,99990.03
2022-10-02T20:11:03.184Z,100006.38
2022-10-02T20:13:56.188Z,100003.81
2022-10-02T20:17:00.777Z,100013.28
2022-10-02T20:19:52.836Z,100016.91
2022-10-02T20:22:48.284Z,100020.38
2022-10-02T20:25:42.297Z,100024.72
2022-10-02T20:28:38.065Z,100023.06
2022-10-02T20:31:38.640Z,100033.34
2022-10-02T20:34:30.400Z,100031.63
2022-10-02T20:37:23.501Z,100038.50
2022-10-02T20:40:18.590Z,100043.63
2022-10-02T20:43:11.957Z,100045.50
2022-10-02T20:46:46.711Z,100047.34
2022-10-02T20:50:12.433Z,100053.44
2022-10-02T20:53:50.008Z,100056.94
2022-10-02T20:57:14.579Z,100067.22
2022-10-02T21:00:15.448Z,100066.28
2022-10-02T21:03:30.934Z,100074.00
2022-10-02T21:06:47.448Z,100091.16
2022-10-02T21:10:18.342Z,100085.19
2022-10-02T21:13:45.189Z,100086.94
2022-10-02T21:17:13.587Z,100084.34
2022-10-02T21:20:55.501Z,100088.00
2022-10-02T21:24:21.703Z,100097.31
2022-10-02T21:27:37.961Z,100100.72
2022-10-02T21:30:29.988Z,100086.94
2022-10-02T21:33:23.140Z,100097.13
2022-10-02T21:36:20.597Z,100096.19
2022-10-02T21:39:55.917Z,100096.28
2022-10-02T21:43:54.769Z,100108.34
2022-10-02T21:47:23.133Z,100110.91
2022-10-02T21:51:00.849Z,100121.41
2022-10-02T21:54:31.869Z,100117.28
2022-10-02T21:58:03.222Z,100118.09
2022-10-02T22:01:22.854Z,100126.72
2022-10-02T22:04:44.230Z,100123.34
2022-10-02T22:07:37.885Z,100125.00
2022-10-02T22:10:43.363Z,100112.16
2022-10-02T22:13:37.897Z,100122.44
2022-10-02T22:16:38.794Z,100125.81
2022-10-02T22:19:50.043Z,100124.91
2022-10-02T22:23:00.952Z,100132.72
2022-10-02T22:26:19.713Z,100142.03
2022-10-02T22:29:15.765Z,100138.66
2022-10-02T22:32:44.131Z,100141.22
2022-10-02T22:35:57.274Z,100141.34
2022-10-02T22:38:49.314Z,100145.63
2022-10-02T22:41:45.317Z,100153.34
2022-10-02T22:44:40.062Z,100149.88
2022-10-02T22:47:36.252Z,100150.72
2022-10-02T22:50:33.591Z,100159.22
2022-10-02T22:53:27.822Z,100162.72
2022-10-02T22:56:29.757Z,100165.28
2022-10-02T22:59:24.372Z,100161.91
2022-10-02T23:02:17.428Z,100174.66
2022-10-02T23:05:11.566Z,100174.66
2022-10-02T23:08:04.134Z,100174.66
2022-10-02T23:10:55.460Z,100181.44
2022-10-02T23:13:49.556Z,100179.56
2022-10-02T23:16:48.168Z,100179.56
2022-10-02T23:19:45.719Z,100187.28
2022-10-02T23:22:37.785Z,100188.13
2022-10-02T23:25:32.692Z,100188.22
2022-10-02T23:28:28.570Z,100188.13
2022-10-02T23:31:22.945Z,100190.81
2022-10-02T23:34:20.499Z,100200.97
2022-10-02T23:37:18.215Z,100195.00
2022-10-02T23:40:45.812Z,100195.09
2022-10-02T23:43:43.176Z,100193.44
2022-10-02T23:46:36.808Z,100190.06
2022-10-02T23:49:33.033Z,100199.44
2022-10-02T23:52:54.060Z,100203.84
2022-10-02T23:56:13.266Z,100212.47
2022-10-02T23:59:16.307Z,100210.84
